sensor_id;sensor_type;location;lat;lon;timestamp;pressure;altitude;pressure_sealevel;temperature;humidity
77299;BME280;66361;52.034;20.656;2023-03-03T00:01:58;100220.09;;;-4.42;100.00
77299;BME280;66361;52.034;20.656;2023-03-03T00:06:04;100217.50;;;-4.42;100.00
77299;BME280;66361;52.034;20.656;2023-03-03T00:10:12;100223.53;;;-4.44;100.00
77299;BME280;66361;52.034;20.656;2023-03-03T00:14:21;100208.06;;;-4.43;100.00
77299;BME280;66361;52.034;20.656;2023-03-03T00:18:29;100208.94;;;-4.41;100.00
77299;BME280;66361;52.034;20.656;2023-03-03T00:22:36;100200.34;;;-4.46;100.00
77299;BME280;66361;52.034;20.656;2023-03-03T00:26:42;100195.22;;;-4.49;100.00
77299;BME280;66361;52.034;20.656;2023-03-03T00:30:53;100190.03;;;-4.47;100.00
77299;BME280;66361;52.034;20.656;2023-03-03T00:35:15;100190.91;;;-4.47;100.00
77299;BME280;66361;52.034;20.656;2023-03-03T00:39:29;100184.03;;;-4.46;100.00
77299;BME280;66361;52.034;20.656;2023-03-03T00:43:34;100187.44;;;-4.43;100.00
77299;BME280;66361;52.034;20.656;2023-03-03T00:47:42;100178.00;;;-4.42;100.00
77299;BME280;66361;52.034;20.656;2023-03-03T00:51:45;100178.91;;;-4.48;100.00
77299;BME280;66361;52.034;20.656;2023-03-03T00:55:51;100177.16;;;-4.47;100.00
77299;BME280;66361;52.034;20.656;2023-03-03T00:59:54;100164.28;;;-4.50;100.00
77299;BME280;66361;52.034;20.656;2023-03-03T01:04:01;100162.56;;;-4.50;100.00
77299;BME280;66361;52.034;20.656;2023-03-03T01:08:05;100148.84;;;-4.55;100.00
77299;BME280;66361;52.034;20.656;2023-03-03T01:12:10;100142.00;;;-4.60;100.00
77299;BME280;66361;52.034;20.656;2023-03-03T01:16:16;100139.44;;;-4.66;100.00
77299;BME280;66361;52.034;20.656;2023-03-03T01:20:21;100134.28;;;-4.72;100.00
77299;BME280;66361;52.034;20.656;2023-03-03T01:24:24;100127.44;;;-4.75;100.00
77299;BME280;66361;52.034;20.656;2023-03-03T01:28:28;100127.44;;;-4.76;100.00
77299;BME280;66361;52.034;20.656;2023-03-03T01:32:32;100124.88;;;-4.79;100.00
77299;BME280;66361;52.034;20.656;2023-03-03T01:36:36;100122.31;;;-4.78;100.00
77299;BME280;66361;52.034;20.656;2023-03-03T01:40:39;100118.88;;;-4.78;100.00
77299;BME280;66361;52.034;20.656;2023-03-03T01:44:44;100114.59;;;-4.82;100.00
77299;BME280;66361;52.034;20.656;2023-03-03T01:48:47;100113.72;;;-4.80;100.00
77299;BME280;66361;52.034;20.656;2023-03-03T01:52:54;100108.56;;;-4.77;100.00
77299;BME280;66361;52.034;20.656;2023-03-03T01:57:02;100099.16;;;-4.78;100.00
77299;BME280;66361;52.034;20.656;2023-03-03T02:01:13;100105.16;;;-4.82;100.00
77299;BME280;66361;52.034;20.656;2023-03-03T02:05:18;100108.56;;;-4.85;100.00
77299;BME280;66361;52.034;20.656;2023-03-03T02:09:31;100094.84;;;-4.83;100.00
77299;BME280;66361;52.034;20.656;2023-03-03T02:13:35;100102.59;;;-4.88;100.00
77299;BME280;66361;52.034;20.656;2023-03-03T02:17:40;100094.91;;;-4.93;100.00
77299;BME280;66361;52.034;20.656;2023-03-03T02:21:45;100099.19;;;-4.98;100.00
77299;BME280;66361;52.034;20.656;2023-03-03T02:26:03;100107.78;;;-5.00;100.00
77299;BME280;66361;52.034;20.656;2023-03-03T02:30:12;100108.63;;;-4.95;100.00
77299;BME280;66361;52.034;20.656;2023-03-03T02:34:16;100111.19;;;-4.92;100.00
77299;BME280;66361;52.034;20.656;2023-03-03T02:38:22;100106.91;;;-4.90;100.00
77299;BME280;66361;52.034;20.656;2023-03-03T02:42:30;100098.28;;;-4.83;100.00
77299;BME280;66361;52.034;20.656;2023-03-03T02:46:36;100102.56;;;-4.79;100.00
77299;BME280;66361;52.034;20.656;2023-03-03T02:50:39;100095.69;;;-4.74;100.00
77299;BME280;66361;52.034;20.656;2023-03-03T02:54:42;100096.53;;;-4.67;100.00
77299;BME280;66361;52.034;20.656;2023-03-03T02:58:47;100093.94;;;-4.60;100.00
77299;BME280;66361;52.034;20.656;2023-03-03T03:02:50;100094.78;;;-4.58;100.00
77299;BME280;66361;52.034;20.656;2023-03-03T03:06:54;100096.50;;;-4.57;100.00
77299;BME280;66361;52.034;20.656;2023-03-03T03:10:57;100096.53;;;-4.60;100.00
77299;BME280;66361;52.034;20.656;2023-03-03T03:15:02;100088.81;;;-4.69;100.00
77299;BME280;66361;52.034;20.656;2023-03-03T03:19:07;100094.00;;;-4.79;100.00
77299;BME280;66361;52.034;20.656;2023-03-03T03:23:11;100089.75;;;-4.87;100.00
77299;BME280;66361;52.034;20.656;2023-03-03T03:27:16;100088.91;;;-4.90;100.00
77299;BME280;66361;52.034;20.656;2023-03-03T03:31:21;100092.34;;;-4.90;100.00
77299;BME280;66361;52.034;20.656;2023-03-03T03:35:24;100095.69;;;-4.85;100.00
77299;BME280;66361;52.034;20.656;2023-03-03T03:39:27;100093.97;;;-4.81;100.00
77299;BME280;66361;52.034;20.656;2023-03-03T03:43:31;100090.56;;;-4.81;100.00
77299;BME280;66361;52.034;20.656;2023-03-03T03:47:35;100099.16;;;-4.78;100.00
77299;BME280;66361;52.034;20.656;2023-03-03T03:51:38;100087.13;;;-4.77;100.00
77299;BME280;66361;52.034;20.656;2023-03-03T03:55:42;100093.13;;;-4.80;100.00
77299;BME280;66361;52.034;20.656;2023-03-03T03:59:45;100085.41;;;-4.75;100.00
77299;BME280;66361;52.034;20.656;2023-03-03T04:03:52;100086.22;;;-4.60;100.00
77299;BME280;66361;52.034;20.656;2023-03-03T04:07:55;100080.16;;;-4.50;100.00
77299;BME280;66361;52.034;20.656;2023-03-03T04:11:58;100063.00;;;-4.49;100.00
77299;BME280;66361;52.034;20.656;2023-03-03T04:16:02;100063.00;;;-4.49;100.00
77299;BME280;66361;52.034;20.656;2023-03-03T04:20:10;100060.38;;;-4.43;100.00
77299;BME280;66361;52.034;20.656;2023-03-03T04:24:14;100071.53;;;-4.37;100.00
77299;BME280;66361;52.034;20.656;2023-03-03T04:28:17;100052.63;;;-4.36;100.00
77299;BME280;66361;52.034;20.656;2023-03-03T04:32:20;100058.69;;;-4.50;100.00
77299;BME280;66361;52.034;20.656;2023-03-03T04:36:25;100043.31;;;-4.65;100.00
77299;BME280;66361;52.034;20.656;2023-03-03T04:40:28;100044.19;;;-4.77;100.00
77299;BME280;66361;52.034;20.656;2023-03-03T04:44:56;100040.81;;;-4.77;100.00
77299;BME280;66361;52.034;20.656;2023-03-03T04:48:59;100039.03;;;-4.63;100.00
77299;BME280;66361;52.034;20.656;2023-03-03T04:53:03;100038.97;;;-4.44;100.00
77299;BME280;66361;52.034;20.656;2023-03-03T04:57:06;100032.84;;;-4.26;100.00
77299;BME280;66361;52.034;20.656;2023-03-03T05:01:11;100038.78;;;-4.10;100.00
77299;BME280;66361;52.034;20.656;2023-03-03T05:05:19;100032.72;;;-4.03;100.00
77299;BME280;66361;52.034;20.656;2023-03-03T05:09:23;100039.53;;;-3.98;100.00
77299;BME280;66361;52.034;20.656;2023-03-03T05:13:26;100030.03;;;-3.90;100.00
77299;BME280;66361;52.034;20.656;2023-03-03T05:17:29;100027.38;;;-3.77;100.00
77299;BME280;66361;52.034;20.656;2023-03-03T05:21:32;100032.34;;;-3.53;100.00
77299;BME280;66361;52.034;20.656;2023-03-03T05:25:40;100033.84;;;-3.25;100.00
77299;BME280;66361;52.034;20.656;2023-03-03T05:29:44;100037.88;;;-2.98;100.00
77299;BME280;66361;52.034;20.656;2023-03-03T05:33:47;100046.25;;;-2.78;100.00
77299;BME280;66361;52.034;20.656;2023-03-03T05:37:50;100041.78;;;-2.61;100.00
77299;BME280;66361;52.034;20.656;2023-03-03T05:41:54;100045.09;;;-2.50;100.00
77299;BME280;66361;52.034;20.656;2023-03-03T05:45:59;100038.00;;;-2.37;100.00
77299;BME280;66361;52.034;20.656;2023-03-03T05:50:03;100043.94;;;-2.29;100.00
77299;BME280;66361;52.034;20.656;2023-03-03T05:54:06;100047.28;;;-2.19;100.00
77299;BME280;66361;52.034;20.656;2023-03-03T05:58:11;100044.59;;;-2.13;100.00
77299;BME280;66361;52.034;20.656;2023-03-03T06:02:16;100044.47;;;-2.03;100.00
77299;BME280;66361;52.034;20.656;2023-03-03T06:06:19;100049.47;;;-1.92;100.00
77299;BME280;66361;52.034;20.656;2023-03-03T06:10:22;100047.59;;;-1.81;100.00
77299;BME280;66361;52.034;20.656;2023-03-03T06:14:26;100037.16;;;-1.75;100.00
77299;BME280;66361;52.034;20.656;2023-03-03T06:18:30;100051.72;;;-1.68;100.00
77299;BME280;66361;52.034;20.656;2023-03-03T06:22:36;100037.78;;;-1.59;100.00
77299;BME280;66361;52.034;20.656;2023-03-03T06:26:39;100035.03;;;-1.50;100.00
77299;BME280;66361;52.034;20.656;2023-03-03T06:30:44;100043.66;;;-1.48;100.00
77299;BME280;66361;52.034;20.656;2023-03-03T06:34:47;100036.53;;;-1.35;100.00
77299;BME280;66361;52.034;20.656;2023-03-03T06:38:50;100035.38;;;-1.19;100.00
77299;BME280;66361;52.034;20.656;2023-03-03T06:42:57;100032.59;;;-1.09;100.00
77299;BME280;66361;52.034;20.656;2023-03-03T06:47:01;100034.19;;;-1.00;100.00
77299;BME280;66361;52.034;20.656;2023-03-03T06:51:21;100035.06;;;-1.01;100.00
77299;BME280;66361;52.034;20.656;2023-03-03T06:55:24;100049.66;;;-0.97;100.00
77299;BME280;66361;52.034;20.656;2023-03-03T06:59:27;100048.94;;;-1.04;100.00
77299;BME280;66361;52.034;20.656;2023-03-03T07:03:33;100046.34;;;-1.05;100.00
77299;BME280;66361;52.034;20.656;2023-03-03T07:07:36;100047.22;;;-1.06;100.00
77299;BME280;66361;52.034;20.656;2023-03-03T07:11:40;100043.56;;;-0.93;100.00
77299;BME280;66361;52.034;20.656;2023-03-03T07:15:47;100038.97;;;-0.79;100.00
77299;BME280;66361;52.034;20.656;2023-03-03T07:19:51;100035.94;;;-0.56;100.00
77299;BME280;66361;52.034;20.656;2023-03-03T07:23:55;100010.53;;;-0.39;100.00
77299;BME280;66361;52.034;20.656;2023-03-03T07:28:00;100002.44;;;-0.24;100.00
77299;BME280;66361;52.034;20.656;2023-03-03T07:32:34;100008.28;;;-0.16;100.00
77299;BME280;66361;52.034;20.656;2023-03-03T07:36:41;100016.03;;;-0.13;100.00
77299;BME280;66361;52.034;20.656;2023-03-03T07:40:47;100010.88;;;-0.14;100.00
77299;BME280;66361;52.034;20.656;2023-03-03T07:44:53;100026.34;;;-0.11;100.00
77299;BME280;66361;52.034;20.656;2023-03-03T07:48:57;100022.81;;;-0.09;100.00
77299;BME280;66361;52.034;20.656;2023-03-03T07:53:02;100030.59;;;-0.09;100.00
77299;BME280;66361;52.034;20.656;2023-03-03T07:57:17;100034.03;;;-0.07;100.00
77299;BME280;66361;52.034;20.656;2023-03-03T08:01:40;100042.38;;;0.08;100.00
77299;BME280;66361;52.034;20.656;2023-03-03T08:05:48;100045.66;;;0.14;100.00
77299;BME280;66361;52.034;20.656;2023-03-03T08:09:59;100050.88;;;0.14;100.00
77299;BME280;66361;52.034;20.656;2023-03-03T08:14:09;100038.66;;;0.19;100.00
77299;BME280;66361;52.034;20.656;2023-03-03T08:18:22;100046.06;;;0.36;100.00
77299;BME280;66361;52.034;20.656;2023-03-03T08:22:30;100057.09;;;0.44;100.00
77299;BME280;66361;52.034;20.656;2023-03-03T08:26:35;100042.53;;;0.38;100.00
77299;BME280;66361;52.034;20.656;2023-03-03T08:30:40;100053.63;;;0.45;100.00
77299;BME280;66361;52.034;20.656;2023-03-03T08:34:46;100053.34;;;0.56;100.00
77299;BME280;66361;52.034;20.656;2023-03-03T08:38:49;100063.63;;;0.60;100.00
77299;BME280;66361;52.034;20.656;2023-03-03T08:42:54;100062.50;;;0.72;100.00
77299;BME280;66361;52.034;20.656;2023-03-03T08:46:58;100068.28;;;0.83;100.00
77299;BME280;66361;52.034;20.656;2023-03-03T08:51:04;100067.03;;;0.97;100.00
77299;BME280;66361;52.034;20.656;2023-03-03T08:55:12;100055.88;;;1.26;100.00
77299;BME280;66361;52.034;20.656;2023-03-03T08:59:17;100062.09;;;1.21;100.00
77299;BME280;66361;52.034;20.656;2023-03-03T09:03:21;100063.19;;;1.12;100.00
77299;BME280;66361;52.034;20.656;2023-03-03T09:07:23;100052.25;;;1.33;100.00
77299;BME280;66361;52.034;20.656;2023-03-03T09:11:28;100060.94;;;1.32;100.00
77299;BME280;66361;52.034;20.656;2023-03-03T09:15:34;100065.31;;;1.30;100.00
77299;BME280;66361;52.034;20.656;2023-03-03T09:19:37;100099.09;;;1.30;99.08
77299;BME280;66361;52.034;20.656;2023-03-03T09:23:40;100088.97;;;1.21;100.00
77299;BME280;66361;52.034;20.656;2023-03-03T09:27:44;100091.13;;;1.04;100.00
77299;BME280;66361;52.034;20.656;2023-03-03T09:31:51;100084.44;;;0.95;100.00
77299;BME280;66361;52.034;20.656;2023-03-03T09:36:02;100087.16;;;0.89;100.00
77299;BME280;66361;52.034;20.656;2023-03-03T09:40:25;100071.84;;;0.79;100.00
77299;BME280;66361;52.034;20.656;2023-03-03T09:49:15;100076.84;;;0.86;100.00
77299;BME280;66361;52.034;20.656;2023-03-03T09:53:38;100063.84;;;0.86;100.00
77299;BME280;66361;52.034;20.656;2023-03-03T09:57:55;100056.03;;;0.88;100.00
77299;BME280;66361;52.034;20.656;2023-03-03T10:02:24;100036.59;;;1.03;100.00
77299;BME280;66361;52.034;20.656;2023-03-03T10:06:36;100030.75;;;0.94;100.00
77299;BME280;66361;52.034;20.656;2023-03-03T10:10:47;100034.16;;;0.96;99.05
77299;BME280;66361;52.034;20.656;2023-03-03T10:15:14;100038.56;;;0.93;100.00
77299;BME280;66361;52.034;20.656;2023-03-03T10:19:30;100040.41;;;0.89;99.59
77299;BME280;66361;52.034;20.656;2023-03-03T10:24:01;100047.28;;;0.92;99.17
77299;BME280;66361;52.034;20.656;2023-03-03T10:28:27;100038.03;;;0.80;98.94
77299;BME280;66361;52.034;20.656;2023-03-03T10:32:41;100047.59;;;0.78;99.56
77299;BME280;66361;52.034;20.656;2023-03-03T10:36:56;100047.78;;;0.72;99.09
77299;BME280;66361;52.034;20.656;2023-03-03T10:41:14;100042.56;;;0.74;97.17
77299;BME280;66361;52.034;20.656;2023-03-03T10:45:44;100029.78;;;0.98;98.24
77299;BME280;66361;52.034;20.656;2023-03-03T10:49:55;100020.03;;;1.07;96.92
77299;BME280;66361;52.034;20.656;2023-03-03T10:54:18;100035.38;;;1.16;95.94
77299;BME280;66361;52.034;20.656;2023-03-03T10:58:50;100043.94;;;1.19;95.62
77299;BME280;66361;52.034;20.656;2023-03-03T11:03:20;100032.78;;;1.16;96.59
77299;BME280;66361;52.034;20.656;2023-03-03T11:07:36;100034.00;;;1.03;94.30
77299;BME280;66361;52.034;20.656;2023-03-03T11:11:49;100037.88;;;0.86;95.69
77299;BME280;66361;52.034;20.656;2023-03-03T11:16:08;100042.47;;;0.77;95.70
77299;BME280;66361;52.034;20.656;2023-03-03T11:20:29;100049.72;;;0.63;96.19
77299;BME280;66361;52.034;20.656;2023-03-03T11:24:48;100056.72;;;0.59;100.00
77299;BME280;66361;52.034;20.656;2023-03-03T11:29:06;100049.06;;;0.55;97.53
77299;BME280;66361;52.034;20.656;2023-03-03T11:33:20;100049.28;;;0.45;97.60
77299;BME280;66361;52.034;20.656;2023-03-03T11:37:28;100051.84;;;0.47;98.86
77299;BME280;66361;52.034;20.656;2023-03-03T11:41:40;100046.59;;;0.50;99.17
77299;BME280;66361;52.034;20.656;2023-03-03T11:45:47;100033.63;;;0.48;97.71
77299;BME280;66361;52.034;20.656;2023-03-03T11:49:59;100030.22;;;0.46;99.29
77299;BME280;66361;52.034;20.656;2023-03-03T11:54:09;100030.16;;;0.48;100.00
77299;BME280;66361;52.034;20.656;2023-03-03T11:58:21;100022.16;;;0.57;98.42
77299;BME280;66361;52.034;20.656;2023-03-03T12:03:12;100027.56;;;0.49;98.01
77299;BME280;66361;52.034;20.656;2023-03-03T12:07:27;100023.34;;;0.44;97.44
77299;BME280;66361;52.034;20.656;2023-03-03T12:11:44;100019.91;;;0.43;98.99
77299;BME280;66361;52.034;20.656;2023-03-03T12:15:51;100020.75;;;0.44;98.48
77299;BME280;66361;52.034;20.656;2023-03-03T12:20:06;100017.50;;;0.36;98.97
77299;BME280;66361;52.034;20.656;2023-03-03T12:24:21;100017.53;;;0.34;98.78
77299;BME280;66361;52.034;20.656;2023-03-03T12:28:35;100017.69;;;0.28;99.25
77299;BME280;66361;52.034;20.656;2023-03-03T12:32:58;100023.66;;;0.32;99.02
77299;BME280;66361;52.034;20.656;2023-03-03T12:37:12;100010.78;;;0.27;99.61
77299;BME280;66361;52.034;20.656;2023-03-03T12:41:28;100023.09;;;0.18;100.00
77299;BME280;66361;52.034;20.656;2023-03-03T12:45:44;100028.34;;;0.16;100.00
77299;BME280;66361;52.034;20.656;2023-03-03T12:50:06;100027.47;;;0.17;100.00
77299;BME280;66361;52.034;20.656;2023-03-03T12:54:32;100027.56;;;0.13;100.00
77299;BME280;66361;52.034;20.656;2023-03-03T12:58:50;100028.63;;;0.04;100.00
77299;BME280;66361;52.034;20.656;2023-03-03T13:03:00;100028.66;;;0.02;100.00
77299;BME280;66361;52.034;20.656;2023-03-03T13:07:12;100027.66;;;0.08;100.00
77299;BME280;66361;52.034;20.656;2023-03-03T13:11:37;100027.03;;;-0.02;100.00
77299;BME280;66361;52.034;20.656;2023-03-03T13:15:51;100021.88;;;-0.05;100.00
77299;BME280;66361;52.034;20.656;2023-03-03T13:20:09;100023.59;;;-0.04;100.00
77299;BME280;66361;52.034;20.656;2023-03-03T13:24:18;100013.28;;;-0.07;100.00
77299;BME280;66361;52.034;20.656;2023-03-03T13:28:30;100007.50;;;-0.19;100.00
77299;BME280;66361;52.034;20.656;2023-03-03T13:32:40;100010.03;;;-0.16;100.00
77299;BME280;66361;52.034;20.656;2023-03-03T13:36:50;100009.97;;;-0.13;100.00
77299;BME280;66361;52.034;20.656;2023-03-03T13:41:03;100010.88;;;-0.14;100.00
77299;BME280;66361;52.034;20.656;2023-03-03T13:45:20;100011.03;;;-0.22;100.00
77299;BME280;66361;52.034;20.656;2023-03-03T13:49:40;100006.63;;;-0.18;100.00
77299;BME280;66361;52.034;20.656;2023-03-03T13:53:52;100004.88;;;-0.18;100.00
77299;BME280;66361;52.034;20.656;2023-03-03T13:58:03;99998.03;;;-0.20;100.00
77299;BME280;66361;52.034;20.656;2023-03-03T14:02:33;99992.06;;;-0.24;100.00
77299;BME280;66361;52.034;20.656;2023-03-03T14:06:52;99988.66;;;-0.27;100.00
77299;BME280;66361;52.034;20.656;2023-03-03T14:11:09;99985.34;;;-0.34;100.00
77299;BME280;66361;52.034;20.656;2023-03-03T14:15:18;99986.31;;;-0.38;100.00
77299;BME280;66361;52.034;20.656;2023-03-03T14:19:27;99971.69;;;-0.40;100.00
77299;BME280;66361;52.034;20.656;2023-03-03T14:23:44;99985.56;;;-0.43;100.00
77299;BME280;66361;52.034;20.656;2023-03-03T14:28:01;99981.25;;;-0.44;100.00
77299;BME280;66361;52.034;20.656;2023-03-03T14:32:20;99970.88;;;-0.44;100.00
77299;BME280;66361;52.034;20.656;2023-03-03T14:36:46;99973.47;;;-0.42;100.00
77299;BME280;66361;52.034;20.656;2023-03-03T14:41:04;99977.75;;;-0.41;100.00
77299;BME280;66361;52.034;20.656;2023-03-03T14:45:31;99979.44;;;-0.40;100.00
77299;BME280;66361;52.034;20.656;2023-03-03T14:49:38;99974.34;;;-0.43;100.00
77299;BME280;66361;52.034;20.656;2023-03-03T14:53:44;99977.81;;;-0.44;100.00
77299;BME280;66361;52.034;20.656;2023-03-03T14:57:51;99983.91;;;-0.47;100.00
77299;BME280;66361;52.034;20.656;2023-03-03T15:02:23;99979.63;;;-0.50;100.00
77299;BME280;66361;52.034;20.656;2023-03-03T15:06:39;99986.53;;;-0.49;100.00
77299;BME280;66361;52.034;20.656;2023-03-03T15:10:44;99990.06;;;-0.53;100.00
77299;BME280;66361;52.034;20.656;2023-03-03T15:14:50;99991.78;;;-0.52;100.00
77299;BME280;66361;52.034;20.656;2023-03-03T15:19:17;99989.34;;;-0.59;100.00
77299;BME280;66361;52.034;20.656;2023-03-03T15:23:43;99982.44;;;-0.60;100.00
77299;BME280;66361;52.034;20.656;2023-03-03T15:27:52;99980.75;;;-0.61;100.00
77299;BME280;66361;52.034;20.656;2023-03-03T15:32:01;99983.31;;;-0.61;100.00
77299;BME280;66361;52.034;20.656;2023-03-03T15:36:14;99979.13;;;-0.65;100.00
77299;BME280;66361;52.034;20.656;2023-03-03T15:40:26;99977.34;;;-0.65;100.00
77299;BME280;66361;52.034;20.656;2023-03-03T15:44:37;99973.97;;;-0.68;100.00
77299;BME280;66361;52.034;20.656;2023-03-03T15:49:00;99977.50;;;-0.71;100.00
77299;BME280;66361;52.034;20.656;2023-03-03T15:53:19;99971.44;;;-0.71;100.00
77299;BME280;66361;52.034;20.656;2023-03-03T15:57:34;99971.53;;;-0.76;100.00
77299;BME280;66361;52.034;20.656;2023-03-03T16:01:45;99974.13;;;-0.76;100.00
77299;BME280;66361;52.034;20.656;2023-03-03T16:05:55;99970.72;;;-0.76;100.00
77299;BME280;66361;52.034;20.656;2023-03-03T16:10:09;99971.44;;;-0.71;100.00
77299;BME280;66361;52.034;20.656;2023-03-03T16:14:37;99971.44;;;-0.71;100.00
77299;BME280;66361;52.034;20.656;2023-03-03T16:18:45;99980.94;;;-0.70;100.00
77299;BME280;66361;52.034;20.656;2023-03-03T16:23:14;99973.19;;;-0.72;100.00
77299;BME280;66361;52.034;20.656;2023-03-03T16:27:23;99979.28;;;-0.73;100.00
77299;BME280;66361;52.034;20.656;2023-03-03T16:31:34;99968.06;;;-0.75;100.00
77299;BME280;66361;52.034;20.656;2023-03-03T16:35:44;99969.78;;;-0.74;100.00
77299;BME280;66361;52.034;20.656;2023-03-03T16:39:55;99975.84;;;-0.75;100.00
77299;BME280;66361;52.034;20.656;2023-03-03T16:44:11;99969.84;;;-0.77;100.00
77299;BME280;66361;52.034;20.656;2023-03-03T16:48:24;99963.75;;;-0.76;100.00
77299;BME280;66361;52.034;20.656;2023-03-03T16:52:36;99954.25;;;-0.74;100.00
77299;BME280;66361;52.034;20.656;2023-03-03T16:56:45;99962.88;;;-0.73;100.00
77299;BME280;66361;52.034;20.656;2023-03-03T17:00:54;99961.16;;;-0.76;100.00
77299;BME280;66361;52.034;20.656;2023-03-03T17:05:05;99959.50;;;-0.78;99.53
77299;BME280;66361;52.034;20.656;2023-03-03T17:09:41;99972.53;;;-0.81;99.44
77299;BME280;66361;52.034;20.656;2023-03-03T17:14:05;99977.72;;;-0.83;100.00
77299;BME280;66361;52.034;20.656;2023-03-03T17:18:18;99974.31;;;-0.85;99.46
77299;BME280;66361;52.034;20.656;2023-03-03T17:22:29;99959.66;;;-0.86;99.81
77299;BME280;66361;52.034;20.656;2023-03-03T17:26:49;99961.31;;;-0.82;99.69
77299;BME280;66361;52.034;20.656;2023-03-03T17:30:59;99965.63;;;-0.81;100.00
77299;BME280;66361;52.034;20.656;2023-03-03T17:35:40;99964.75;;;-0.81;99.71
77299;BME280;66361;52.034;20.656;2023-03-03T17:40:01;99968.22;;;-0.82;99.66
77299;BME280;66361;52.034;20.656;2023-03-03T17:44:10;99976.78;;;-0.79;100.00
77299;BME280;66361;52.034;20.656;2023-03-03T17:48:40;99969.00;;;-0.79;100.00
77299;BME280;66361;52.034;20.656;2023-03-03T17:52:55;99964.66;;;-0.77;100.00
77299;BME280;66361;52.034;20.656;2023-03-03T17:57:08;99963.75;;;-0.76;100.00
77299;BME280;66361;52.034;20.656;2023-03-03T18:01:25;99964.72;;;-0.80;100.00
77299;BME280;66361;52.034;20.656;2023-03-03T18:05:53;99954.31;;;-0.77;99.36
77299;BME280;66361;52.034;20.656;2023-03-03T18:19:29;99950.78;;;-0.74;98.03
77299;BME280;66361;52.034;20.656;2023-03-03T18:23:39;99934.31;;;-0.72;97.41
77299;BME280;66361;52.034;20.656;2023-03-03T18:27:46;99935.16;;;-0.70;96.92
77299;BME280;66361;52.034;20.656;2023-03-03T18:32:02;99928.25;;;-0.71;96.55
77299;BME280;66361;52.034;20.656;2023-03-03T18:36:13;99926.53;;;-0.70;97.04
77299;BME280;66361;52.034;20.656;2023-03-03T18:40:31;99914.25;;;-0.62;95.95
77299;BME280;66361;52.034;20.656;2023-03-03T18:44:34;99912.56;;;-0.63;95.93
77299;BME280;66361;52.034;20.656;2023-03-03T18:48:48;99919.38;;;-0.59;96.06
77299;BME280;66361;52.034;20.656;2023-03-03T18:53:15;99920.25;;;-0.60;95.80
77299;BME280;66361;52.034;20.656;2023-03-03T18:57:20;99918.53;;;-0.60;96.11
77299;BME280;66361;52.034;20.656;2023-03-03T19:01:41;99904.59;;;-0.56;95.29
77299;BME280;66361;52.034;20.656;2023-03-03T19:05:46;99897.72;;;-0.57;95.18
77299;BME280;66361;52.034;20.656;2023-03-03T19:09:57;99898.56;;;-0.55;94.53
77299;BME280;66361;52.034;20.656;2023-03-03T19:14:18;99910.56;;;-0.51;94.44
77299;BME280;66361;52.034;20.656;2023-03-03T19:18:26;99908.78;;;-0.49;94.32
77299;BME280;66361;52.034;20.656;2023-03-03T19:22:30;99899.25;;;-0.48;94.40
77299;BME280;66361;52.034;20.656;2023-03-03T19:27:07;99896.66;;;-0.47;94.26
77299;BME280;66361;52.034;20.656;2023-03-03T19:31:21;99891.41;;;-0.45;93.73
77299;BME280;66361;52.034;20.656;2023-03-03T19:35:31;99897.44;;;-0.44;94.02
77299;BME280;66361;52.034;20.656;2023-03-03T19:39:51;99879.31;;;-0.44;93.20
77299;BME280;66361;52.034;20.656;2023-03-03T19:44:05;99881.81;;;-0.41;93.16
77299;BME280;66361;52.034;20.656;2023-03-03T19:48:19;99881.75;;;-0.38;92.43
77299;BME280;66361;52.034;20.656;2023-03-03T19:52:32;99873.97;;;-0.38;92.63
77299;BME280;66361;52.034;20.656;2023-03-03T19:56:42;99873.97;;;-0.38;92.56
77299;BME280;66361;52.034;20.656;2023-03-03T20:00:56;99855.81;;;-0.38;92.67
77299;BME280;66361;52.034;20.656;2023-03-03T20:05:20;99864.44;;;-0.38;92.06
77299;BME280;66361;52.034;20.656;2023-03-03T20:09:39;99860.91;;;-0.34;92.25
77299;BME280;66361;52.034;20.656;2023-03-03T20:13:50;99855.72;;;-0.34;91.93
77299;BME280;66361;52.034;20.656;2023-03-03T20:18:20;99850.59;;;-0.37;92.86
77299;BME280;66361;52.034;20.656;2023-03-03T20:22:34;99845.41;;;-0.35;92.50
77299;BME280;66361;52.034;20.656;2023-03-03T20:26:49;99835.84;;;-0.33;92.21
77299;BME280;66361;52.034;20.656;2023-03-03T20:31:02;99838.41;;;-0.32;91.69
77299;BME280;66361;52.034;20.656;2023-03-03T20:35:19;99836.59;;;-0.30;91.88
77299;BME280;66361;52.034;20.656;2023-03-03T20:39:39;99810.69;;;-0.30;91.53
77299;BME280;66361;52.034;20.656;2023-03-03T20:43:57;99799.44;;;-0.30;92.19
77299;BME280;66361;52.034;20.656;2023-03-03T20:48:14;99805.50;;;-0.30;91.98
77299;BME280;66361;52.034;20.656;2023-03-03T20:52:35;99804.63;;;-0.29;91.54
77299;BME280;66361;52.034;20.656;2023-03-03T20:56:49;99793.38;;;-0.28;92.18
77299;BME280;66361;52.034;20.656;2023-03-03T21:01:02;99798.50;;;-0.26;92.07
77299;BME280;66361;52.034;20.656;2023-03-03T21:05:12;99800.19;;;-0.25;92.04
77299;BME280;66361;52.034;20.656;2023-03-03T21:09:28;99787.22;;;-0.24;91.93
77299;BME280;66361;52.034;20.656;2023-03-03T21:13:37;99781.97;;;-0.22;92.13
77299;BME280;66361;52.034;20.656;2023-03-03T21:17:41;99777.63;;;-0.20;92.18
77299;BME280;66361;52.034;20.656;2023-03-03T21:21:47;99770.63;;;-0.18;92.31
77299;BME280;66361;52.034;20.656;2023-03-03T21:25:52;99768.91;;;-0.18;91.66
77299;BME280;66361;52.034;20.656;2023-03-03T21:30:08;99759.38;;;-0.17;92.37
77299;BME280;66361;52.034;20.656;2023-03-03T21:34:21;99760.19;;;-0.15;92.45
77299;BME280;66361;52.034;20.656;2023-03-03T21:38:31;99753.25;;;-0.15;92.19
77299;BME280;66361;52.034;20.656;2023-03-03T21:42:39;99740.28;;;-0.15;92.79
77299;BME280;66361;52.034;20.656;2023-03-03T21:46:46;99736.72;;;-0.11;92.47